Decoded Metar for OINN (NOSHAHR in IRAN) (IATA:N/A) | Meteo·Mobile Aviation Weather
aviador You're here:

OINN Decoded Metar

NOSHAHR in IRAN
Report Time2018-09-19 20:00:00
UTC Time2018-09-19 21:05:44
Flight Rules mvfr MVFR
WindCalm
Visibility7000 m
Phenomena:Light Rain
Clouds:Few CB 022 Hf
Broken 027 Hf
Ceiling2,700 ft
Temp21°C (ISA +6)
Dew Point21°C (100% RH)
QNH1019 hPa
Density Alt748 ft
Elevation-62 ft
Report Wrong Elevation
Raw Report
METAR OINN 192000Z 00000KT 7000 -RA FEW022CB BKN027 21/21 Q1019=

Extra information for OINN:More info

Metar Taf Metar & Taf Last 4 Metars F.Rules Stats Wind Profile Meteogram Temp Stats Airport Information Weather charts Add Link Nearby VenuesMetar ALERT Operation Metar Decoded Social comments